Blue Star 1 — SWET — position and weather

sailwx.info

Track history (hours):
 
Tides and Currents Weather Stations Pressure Air Temp Water Temp Dewpoint Dewpoint Depression Visibility Wind Speed Wind Dir Waves Ship Positions

Blue Star 1

Last reported at 2016-Jun-26 21:15 UTC. Time now 2016-Jun-27 16:54 UTC.
Position N 37°51' E 024°29'.

Length 177 m; draft 6.5 m.

Type: Passenger vessel. MMSI: 239710000.

Date/timePositionNaut miles runAvg speedWind from/ knotsBaromVisibWave heightAir tempDewpointWater temp
2016-Jun-26 21:15N 37°51' E 024°29'3017.8
2016-Jun-26 19:33N 37°37' E 023°55'1817.9
2016-Jun-26 18:33N 37°49' E 023°38'8 8.0
2016-Jun-26 17:33N 37°56' E 023°38'0 0.1
2016-Jun-26 16:34N 37°56' E 023°38'1918.8
2016-Jun-26 15:34N 37°40' E 023°49'2423.3
2016-Jun-26 14:31N 37°46' E 024°18'11 0.6
2016-Jun-25 20:32N 37°52' E 024°29'3023.0
2016-Jun-25 19:15N 37°37' E 023°56'1622.9
2016-Jun-25 18:34N 37°45' E 023°39'1111.0
2016-Jun-25 17:34N 37°56' E 023°38'0 0.0
2016-Jun-25 16:34N 37°56' E 023°38'0 0.0
2016-Jun-25 15:34N 37°56' E 023°38'10 9.7
2016-Jun-25 14:34N 37°47' E 023°42'2721.7
2016-Jun-25 13:18N 37°43' E 024°16'25 1.5
2016-Jun-24 21:05N 37°59' E 024°40'1223.7
2016-Jun-24 20:34N 37°51' E 024°28'2823.0
2016-Jun-24 19:20N 37°37' E 023°57'1822.8
2016-Jun-24 18:34N 37°46' E 023°39'1010.0
2016-Jun-24 17:34N 37°56' E 023°38'0 0.0
2016-Jun-24 16:33N 37°56' E 023°38'1 0.9
2016-Jun-24 15:34N 37°56' E 023°37'2221.9
2016-Jun-24 14:33N 37°38' E 023°53'2724.6
2016-Jun-24 13:28N 37°49' E 024°25'4 0.2
2016-Jun-23 20:34N 37°52' E 024°28'2622.7
2016-Jun-23 19:26N 37°38' E 024°01'1922.0
2016-Jun-23 18:34N 37°46' E 023°39'1010.1
2016-Jun-23 17:34N 37°56' E 023°38'0 0.0
2016-Jun-23 16:34N 37°56' E 023°38'0 0.0
2016-Jun-23 15:33N 37°56' E 023°38'0 0.0
2016-Jun-23 14:34N 37°56' E 023°38'0 0.0
2016-Jun-23 13:34N 37°56' E 023°38'0 0.0
2016-Jun-23 12:34N 37°56' E 023°38'0 0.0
2016-Jun-23 11:33N 37°56' E 023°38'0 0.0
2016-Jun-23 10:34N 37°56' E 023°38'0 0.0
2016-Jun-23 09:33N 37°56' E 023°38'0 0.0
2016-Jun-23 08:33N 37°56' E 023°38'0 0.0
2016-Jun-23 07:34N 37°56' E 023°38'0 0.0
2016-Jun-23 05:34N 37°56' E 023°38'0 0.0
2016-Jun-23 04:33N 37°56' E 023°38'0 0.0
2016-Jun-23 03:33N 37°56' E 023°38'1111.0
2016-Jun-23 02:33N 37°46' E 023°43'2120.4
2016-Jun-23 01:30N 37°37' E 024°07'2223.3
2016-Jun-23 00:34N 37°51' E 024°29'10 0.4
2016-Jun-21 21:18N 37°57' E 024°39'1621.5
2016-Jun-21 20:33N 37°47' E 024°23'2120.6
2016-Jun-21 19:33N 37°37' E 023°60'2019.9
2016-Jun-21 18:34N 37°47' E 023°39'9 9.1
2016-Jun-21 17:34N 37°56' E 023°38'0 0.0
2016-Jun-21 16:34N 37°56' E 023°38'0 0.0
2016-Jun-21 15:33N 37°56' E 023°38'0 0.0
2016-Jun-21 14:34N 37°56' E 023°38'0 0.0
2016-Jun-21 13:34N 37°56' E 023°38'0 0.0
2016-Jun-21 12:33N 37°56' E 023°38'0 0.0
2016-Jun-21 11:33N 37°56' E 023°38'0 0.0
2016-Jun-21 04:10N 37°56' E 023°38'0 0.0
2016-Jun-21 03:34N 37°56' E 023°38'1515.0
2016-Jun-21 02:33N 37°43' E 023°45'2419.5
2016-Jun-21 01:19N 37°43' E 024°15'20 0.7
2016-Jun-19 21:08N 37°55' E 024°35'3321.0
2016-Jun-19 19:33N 37°37' E 023°60'2020.1
2016-Jun-19 18:33N 37°48' E 023°38'9 8.9
2016-Jun-19 17:33N 37°56' E 023°38'0 0.2
2016-Jun-19 16:34N 37°56' E 023°38'2020.4
2016-Jun-19 15:34N 37°39' E 023°51'2423.8
2016-Jun-19 14:32N 37°47' E 024°20'1 0.0
2016-Jun-18 20:11N 37°47' E 024°21'1624.5
2016-Jun-18 19:32N 37°37' E 024°05'2222.9
2016-Jun-18 18:34N 37°47' E 023°39'10 9.9
2016-Jun-18 17:33N 37°56' E 023°38'0 0.0
2016-Jun-18 16:33N 37°56' E 023°38'0 0.0
2016-Jun-18 15:33N 37°56' E 023°38'8 8.2
2016-Jun-18 14:34N 37°49' E 023°41'2322.6
2016-Jun-18 13:32N 37°38' E 024°07'2726.3
2016-Jun-18 12:31N 37°55' E 024°33'9 0.6
2016-Jun-17 20:20N 37°49' E 024°25'1924.4
2016-Jun-17 19:33N 37°37' E 024°05'2323.2
2016-Jun-17 18:34N 37°46' E 023°39'1010.2
2016-Jun-17 17:33N 37°56' E 023°38'0 0.0
2016-Jun-17 16:33N 37°56' E 023°38'0 0.0
2016-Jun-17 15:33N 37°56' E 023°38'1818.2
2016-Jun-17 14:34N 37°40' E 023°48'2423.6
2016-Jun-17 13:33N 37°44' E 024°17'  
Track history (hours):
 
Tides and Currents Weather Stations Pressure Air Temp Water Temp Dewpoint Dewpoint Depression Visibility Wind Speed Wind Dir Waves Ship Positions

Blue Star 1

Last reported at 2016-Jun-26 21:15 UTC. Time now 2016-Jun-27 16:54 UTC.
Position N 37°51' E 024°29'.

Length 177 m; draft 6.5 m.

Type: Passenger vessel. MMSI: 239710000.

Date/timePositionNaut miles runAvg speedWind from/ knotsBaromVisibWave heightAir tempDewpointWater temp
2016-Jun-26 21:15N 37°51' E 024°29'3017.8
2016-Jun-26 19:33N 37°37' E 023°55'1817.9
2016-Jun-26 18:33N 37°49' E 023°38'8 8.0
2016-Jun-26 17:33N 37°56' E 023°38'0 0.1
2016-Jun-26 16:34N 37°56' E 023°38'1918.8
2016-Jun-26 15:34N 37°40' E 023°49'2423.3
2016-Jun-26 14:31N 37°46' E 024°18'11 0.6
2016-Jun-25 20:32N 37°52' E 024°29'3023.0
2016-Jun-25 19:15N 37°37' E 023°56'1622.9
2016-Jun-25 18:34N 37°45' E 023°39'1111.0
2016-Jun-25 17:34N 37°56' E 023°38'0 0.0
2016-Jun-25 16:34N 37°56' E 023°38'0 0.0
2016-Jun-25 15:34N 37°56' E 023°38'10 9.7
2016-Jun-25 14:34N 37°47' E 023°42'2721.7
2016-Jun-25 13:18N 37°43' E 024°16'25 1.5
2016-Jun-24 21:05N 37°59' E 024°40'1223.7
2016-Jun-24 20:34N 37°51' E 024°28'2823.0
2016-Jun-24 19:20N 37°37' E 023°57'1822.8
2016-Jun-24 18:34N 37°46' E 023°39'1010.0
2016-Jun-24 17:34N 37°56' E 023°38'0 0.0
2016-Jun-24 16:33N 37°56' E 023°38'1 0.9
2016-Jun-24 15:34N 37°56' E 023°37'2221.9
2016-Jun-24 14:33N 37°38' E 023°53'2724.6
2016-Jun-24 13:28N 37°49' E 024°25'4 0.2
2016-Jun-23 20:34N 37°52' E 024°28'2622.7
2016-Jun-23 19:26N 37°38' E 024°01'1922.0
2016-Jun-23 18:34N 37°46' E 023°39'1010.1
2016-Jun-23 17:34N 37°56' E 023°38'0 0.0
2016-Jun-23 16:34N 37°56' E 023°38'0 0.0
2016-Jun-23 15:33N 37°56' E 023°38'0 0.0
2016-Jun-23 14:34N 37°56' E 023°38'0 0.0
2016-Jun-23 13:34N 37°56' E 023°38'0 0.0
2016-Jun-23 12:34N 37°56' E 023°38'0 0.0
2016-Jun-23 11:33N 37°56' E 023°38'0 0.0
2016-Jun-23 10:34N 37°56' E 023°38'0 0.0
2016-Jun-23 09:33N 37°56' E 023°38'0 0.0
2016-Jun-23 08:33N 37°56' E 023°38'0 0.0
2016-Jun-23 07:34N 37°56' E 023°38'0 0.0
2016-Jun-23 05:34N 37°56' E 023°38'0 0.0
2016-Jun-23 04:33N 37°56' E 023°38'0 0.0
2016-Jun-23 03:33N 37°56' E 023°38'1111.0
2016-Jun-23 02:33N 37°46' E 023°43'2120.4
2016-Jun-23 01:30N 37°37' E 024°07'2223.3
2016-Jun-23 00:34N 37°51' E 024°29'10 0.4
2016-Jun-21 21:18N 37°57' E 024°39'1621.5
2016-Jun-21 20:33N 37°47' E 024°23'2120.6
2016-Jun-21 19:33N 37°37' E 023°60'2019.9
2016-Jun-21 18:34N 37°47' E 023°39'9 9.1
2016-Jun-21 17:34N 37°56' E 023°38'0 0.0
2016-Jun-21 16:34N 37°56' E 023°38'0 0.0
2016-Jun-21 15:33N 37°56' E 023°38'0 0.0
2016-Jun-21 14:34N 37°56' E 023°38'0 0.0
2016-Jun-21 13:34N 37°56' E 023°38'0 0.0
2016-Jun-21 12:33N 37°56' E 023°38'0 0.0
2016-Jun-21 11:33N 37°56' E 023°38'0 0.0
2016-Jun-21 04:10N 37°56' E 023°38'0 0.0
2016-Jun-21 03:34N 37°56' E 023°38'1515.0
2016-Jun-21 02:33N 37°43' E 023°45'2419.5
2016-Jun-21 01:19N 37°43' E 024°15'20 0.7
2016-Jun-19 21:08N 37°55' E 024°35'3321.0
2016-Jun-19 19:33N 37°37' E 023°60'2020.1
2016-Jun-19 18:33N 37°48' E 023°38'9 8.9
2016-Jun-19 17:33N 37°56' E 023°38'0 0.2
2016-Jun-19 16:34N 37°56' E 023°38'2020.4
2016-Jun-19 15:34N 37°39' E 023°51'2423.8
2016-Jun-19 14:32N 37°47' E 024°20'1 0.0
2016-Jun-18 20:11N 37°47' E 024°21'1624.5
2016-Jun-18 19:32N 37°37' E 024°05'2222.9
2016-Jun-18 18:34N 37°47' E 023°39'10 9.9
2016-Jun-18 17:33N 37°56' E 023°38'0 0.0
2016-Jun-18 16:33N 37°56' E 023°38'0 0.0
2016-Jun-18 15:33N 37°56' E 023°38'8 8.2
2016-Jun-18 14:34N 37°49' E 023°41'2322.6
2016-Jun-18 13:32N 37°38' E 024°07'2726.3
2016-Jun-18 12:31N 37°55' E 024°33'9 0.6
2016-Jun-17 20:20N 37°49' E 024°25'1924.4
2016-Jun-17 19:33N 37°37' E 024°05'2323.2
2016-Jun-17 18:34N 37°46' E 023°39'1010.2
2016-Jun-17 17:33N 37°56' E 023°38'0 0.0
2016-Jun-17 16:33N 37°56' E 023°38'0 0.0
2016-Jun-17 15:33N 37°56' E 023°38'1818.2
2016-Jun-17 14:34N 37°40' E 023°48'2423.6
2016-Jun-17 13:33N 37°44' E 024°17'  

Dump ship's entire track history